Hightstown, New Jersey
Current Conditions -  °F | °C
As of 11:53 PM on Friday 28 Nov 2014 (Local Time) from KTTN Reporting Station
Clear Clear  
Wind Chill: 24°   Ceiling: Unl
Heat Index: 24°   Visibility: 10mi
Dew Point: 17°   Wind: 3mph
Humidity: 75%   Direction: 310°NW
Pressure: 30.27"   Gusts: NA
Location:  40.27°N, 74.52°W
Report Text: KTTN 290453Z AUTO 31003KT 10SM CLR M04/M08 A3027 RMK AO2 SLP248 T10441083 400281050
Loading
Personal Weather Stations






























Interactive Weather Map New forecast layout! Learn more

10-Day Weather Forecast

Advertisements
Track Severe Weather on mobile